Time;durP1;ratioP1;P1;durP2;ratioP2;P2;SDS_P1;SDS_P2;PMS_P1;PMS_P2;Temp;Humidity;BMP_temperature;BMP_pressure;BME280_temperature;BME280_humidity;BME280_pressure;Samples;Min_cycle;Max_cycle;Signal;HPM_P1;HPM_P2
2021/01/25 00:00:22;;;;;;;20.83;12.50;;;1.90;99.90;;;;;;5079909;28;20202;-83
2021/01/25 00:02:48;;;;;;;24.25;12.65;;;1.90;99.90;;;;;;5079377;28;20285;-82
2021/01/25 00:05:15;;;;;;;25.67;13.93;;;1.80;99.90;;;;;;5079613;28;20206;-82
2021/01/25 00:07:42;;;;;;;30.95;15.23;;;1.80;99.90;;;;;;5079156;28;20214;-82
2021/01/25 00:10:08;;;;;;;29.08;15.25;;;1.80;99.90;;;;;;5079231;28;20698;-82
2021/01/25 00:12:35;;;;;;;29.30;14.73;;;1.80;99.90;;;;;;5079637;28;20205;-82
2021/01/25 00:15:01;;;;;;;32.20;15.82;;;1.70;99.90;;;;;;5083136;28;20206;-82
2021/01/25 00:17:29;;;;;;;30.75;14.75;;;1.70;99.90;;;;;;5079161;28;20289;-82
2021/01/25 00:19:55;;;;;;;23.90;13.05;;;1.90;99.90;;;;;;5079389;28;20206;-82
2021/01/25 00:22:22;;;;;;;23.33;13.07;;;1.90;99.90;;;;;;5079324;28;20266;-82
2021/01/25 00:24:49;;;;;;;34.05;14.73;;;1.90;99.90;;;;;;5079237;28;20224;-82
2021/01/25 00:27:15;;;;;;;23.92;14.13;;;1.90;99.90;;;;;;5078738;28;20225;-82
2021/01/25 00:29:42;;;;;;;22.88;13.57;;;2.00;99.90;;;;;;5078025;28;20767;-82
2021/01/25 00:32:08;;;;;;;19.17;12.05;;;2.00;99.90;;;;;;5078259;28;20201;-83
2021/01/25 00:34:38;;;;;;;21.70;13.43;;;1.90;99.90;;;;;;5083227;28;20226;-82
2021/01/25 00:37:04;;;;;;;25.70;12.77;;;1.90;99.90;;;;;;5088533;28;20260;-82
2021/01/25 00:39:31;;;;;;;21.50;14.90;;;1.90;99.90;;;;;;5091970;28;20206;-82
2021/01/25 00:41:57;;;;;;;18.92;12.23;;;1.90;99.90;;;;;;5088652;28;20218;-82
2021/01/25 00:44:24;;;;;;;21.58;11.88;;;2.00;99.90;;;;;;5083761;28;20202;-82
2021/01/25 00:46:50;;;;;;;20.63;13.50;;;2.00;99.90;;;;;;5079984;28;20660;-82
2021/01/25 00:49:16;;;;;;;19.25;11.80;;;1.90;99.90;;;;;;5078876;28;20289;-82
2021/01/25 00:51:43;;;;;;;20.83;12.23;;;1.90;99.90;;;;;;5078130;28;20274;-82
2021/01/25 00:54:10;;;;;;;27.27;13.60;;;1.90;99.90;;;;;;5077860;28;20238;-82
2021/01/25 00:56:36;;;;;;;20.10;12.48;;;2.00;99.90;;;;;;5077567;28;20279;-82
2021/01/25 00:59:02;;;;;;;24.58;12.15;;;2.00;99.90;;;;;;5077898;28;20289;-82
2021/01/25 01:01:29;;;;;;;18.35;10.77;;;2.00;99.90;;;;;;5077485;28;20671;-82
2021/01/25 01:03:55;;;;;;;20.48;13.02;;;2.00;99.90;;;;;;5077597;28;20198;-82
2021/01/25 01:06:21;;;;;;;22.00;12.82;;;2.00;99.90;;;;;;5078133;28;20288;-82
2021/01/25 01:08:49;;;;;;;20.27;12.65;;;2.00;99.90;;;;;;5078542;28;20313;-82
2021/01/25 01:11:18;;;;;;;22.05;12.40;;;2.00;99.90;;;;;;5078870;28;20203;-81
2021/01/25 01:13:44;;;;;;;32.08;13.10;;;2.10;99.90;;;;;;5086121;28;20210;-81
2021/01/25 01:16:10;;;;;;;24.25;13.82;;;2.10;99.90;;;;;;5087885;28;20309;-82
2021/01/25 01:18:37;;;;;;;18.02;10.95;;;2.10;99.90;;;;;;5086967;28;20198;-82
2021/01/25 01:21:03;;;;;;;20.80;13.23;;;2.00;99.90;;;;;;5083928;28;20206;-82
2021/01/25 01:23:30;;;;;;;21.98;12.85;;;2.10;99.90;;;;;;5077947;28;20203;-82
2021/01/25 01:25:57;;;;;;;19.40;12.50;;;2.10;99.90;;;;;;5077809;28;20709;-82
2021/01/25 01:28:23;;;;;;;22.40;13.60;;;2.10;99.90;;;;;;5077856;28;20222;-82
2021/01/25 01:30:50;;;;;;;22.05;13.27;;;2.10;99.90;;;;;;5077448;28;20217;-82
2021/01/25 01:33:16;;;;;;;26.25;14.07;;;2.10;99.90;;;;;;5077599;28;20615;-82
2021/01/25 01:35:42;;;;;;;23.75;14.45;;;2.10;99.90;;;;;;5076814;28;20222;-82
2021/01/25 01:38:08;;;;;;;20.42;14.05;;;2.10;99.90;;;;;;5076907;28;20281;-82
2021/01/25 01:40:35;;;;;;;23.85;14.68;;;2.20;99.90;;;;;;5076648;28;20294;-82
2021/01/25 01:43:02;;;;;;;26.88;15.63;;;2.20;99.90;;;;;;5086567;28;20207;-82
2021/01/25 01:45:28;;;;;;;23.45;14.98;;;2.10;99.90;;;;;;5080954;28;20252;-82
2021/01/25 01:47:56;;;;;;;22.50;14.77;;;2.20;99.90;;;;;;5079312;28;20232;-82
2021/01/25 01:50:22;;;;;;;23.60;15.43;;;2.20;99.90;;;;;;5078114;28;20206;-82
2021/01/25 01:52:48;;;;;;;23.75;13.30;;;2.20;99.90;;;;;;5077891;28;20230;-82
2021/01/25 01:55:15;;;;;;;25.85;16.52;;;2.20;99.90;;;;;;5076856;28;20203;-82
2021/01/25 01:57:42;;;;;;;28.02;15.57;;;2.20;99.90;;;;;;5077421;28;20186;-82
2021/01/25 02:00:10;;;;;;;24.52;15.43;;;2.20;99.90;;;;;;5077858;28;20207;-82
2021/01/25 02:02:37;;;;;;;25.75;17.40;;;2.10;99.90;;;;;;5077656;28;20202;-82
2021/01/25 02:05:04;;;;;;;25.80;15.85;;;2.10;99.90;;;;;;5076782;28;20301;-82
2021/01/25 02:07:31;;;;;;;24.85;16.13;;;2.10;99.90;;;;;;5076895;28;20308;-82
2021/01/25 02:10:00;;;;;;;24.10;16.40;;;2.10;99.90;;;;;;5076662;28;20551;-82
2021/01/25 02:12:26;;;;;;;29.48;16.38;;;1.90;99.90;;;;;;5077471;28;20206;-82
2021/01/25 02:14:53;;;;;;;23.23;15.05;;;1.90;99.90;;;;;;5076286;28;20247;-82
2021/01/25 02:17:20;;;;;;;23.55;14.63;;;1.80;99.90;;;;;;5076235;28;20222;-82
2021/01/25 02:19:53;;;;;;;27.15;17.13;;;1.80;99.90;;;;;;5076278;28;20561;-82
2021/01/25 02:22:47;;;;;;;26.63;16.88;;;1.60;99.90;;;;;;5076051;28;20210;-82
2021/01/25 02:25:16;;;;;;;25.83;16.23;;;1.60;99.90;;;;;;5076046;28;20686;-82
2021/01/25 02:27:45;;;;;;;28.60;17.73;;;1.50;99.90;;;;;;5075951;28;20222;-82
2021/01/25 02:30:13;;;;;;;29.55;19.45;;;1.40;99.90;;;;;;5077074;28;20289;-82
2021/01/25 02:32:40;;;;;;;33.40;17.60;;;1.50;99.90;;;;;;5075987;28;20216;-82
2021/01/25 02:35:09;;;;;;;31.42;18.23;;;1.50;99.90;;;;;;5077074;28;20203;-83
2021/01/25 02:37:38;;;;;;;28.20;18.83;;;1.50;99.90;;;;;;5076584;28;20277;-82
2021/01/25 02:40:07;;;;;;;32.88;19.15;;;1.40;99.90;;;;;;5076383;28;20217;-82
2021/01/25 02:42:34;;;;;;;30.67;17.77;;;1.50;99.90;;;;;;5076918;28;20281;-82
2021/01/25 02:45:03;;;;;;;29.08;17.83;;;1.50;99.90;;;;;;5076877;28;20206;-82
2021/01/25 02:47:32;;;;;;;31.02;19.15;;;1.50;99.90;;;;;;5077342;28;20206;-82
2021/01/25 02:49:58;;;;;;;30.17;18.88;;;1.50;99.90;;;;;;5076844;28;20693;-82
2021/01/25 02:52:24;;;;;;;28.05;17.90;;;1.50;99.90;;;;;;5076430;28;20298;-82
2021/01/25 02:54:51;;;;;;;26.90;17.98;;;1.50;99.90;;;;;;5076725;28;20684;-82
2021/01/25 02:57:19;;;;;;;32.25;19.65;;;1.50;99.90;;;;;;5086009;28;20285;-82
2021/01/25 02:59:49;;;;;;;24.50;17.40;;;1.50;99.90;;;;;;5095680;28;20210;-82
2021/01/25 03:02:16;;;;;;;34.00;19.55;;;1.50;99.90;;;;;;5098016;28;20281;-82
2021/01/25 03:04:43;;;;;;;28.35;19.00;;;1.50;99.90;;;;;;5098413;28;20265;-82
2021/01/25 03:07:09;;;;;;;32.78;17.42;;;1.50;99.90;;;;;;5099694;28;20244;-82
2021/01/25 03:09:36;;;;;;;31.58;18.80;;;1.50;99.90;;;;;;5098143;28;20219;-82
2021/01/25 03:12:03;;;;;;;34.83;18.67;;;1.50;99.90;;;;;;5098870;28;20210;-82
2021/01/25 03:14:30;;;;;;;31.42;17.42;;;1.60;99.90;;;;;;5098797;28;20203;-82
2021/01/25 03:16:57;;;;;;;30.10;18.40;;;1.60;99.90;;;;;;5099599;28;20281;-82
2021/01/25 03:19:24;;;;;;;29.25;18.38;;;1.60;99.90;;;;;;5089255;28;20289;-82
2021/01/25 03:21:51;;;;;;;27.83;17.92;;;1.60;99.90;;;;;;5078772;28;20203;-82
2021/01/25 03:24:18;;;;;;;25.48;16.00;;;1.70;99.90;;;;;;5079050;28;20199;-82
2021/01/25 03:26:45;;;;;;;23.50;15.82;;;1.70;99.90;;;;;;5079415;28;20233;-82
2021/01/25 03:29:12;;;;;;;23.83;14.25;;;1.70;99.90;;;;;;5079169;28;20225;-82
2021/01/25 03:31:39;;;;;;;22.98;15.50;;;1.80;99.90;;;;;;5078726;28;20210;-82
2021/01/25 03:34:07;;;;;;;22.48;14.40;;;1.70;99.90;;;;;;5078331;28;20586;-82
2021/01/25 03:36:34;;;;;;;21.35;13.93;;;1.70;99.90;;;;;;5079420;28;20712;-82
2021/01/25 03:39:00;;;;;;;23.33;14.82;;;1.70;99.90;;;;;;5079844;28;20565;-82
2021/01/25 03:41:27;;;;;;;20.52;13.35;;;1.80;99.90;;;;;;5078892;28;20202;-82
2021/01/25 03:43:53;;;;;;;18.75;12.38;;;1.80;99.90;;;;;;5078708;28;20232;-82
2021/01/25 03:46:20;;;;;;;22.73;12.32;;;1.80;99.90;;;;;;5086659;28;20289;-82
2021/01/25 03:48:46;;;;;;;18.42;11.55;;;1.80;99.90;;;;;;5093427;28;20232;-81
2021/01/25 03:51:14;;;;;;;18.02;12.20;;;1.80;99.90;;;;;;5094817;28;20213;-81
2021/01/25 03:53:41;;;;;;;20.00;14.23;;;1.80;99.90;;;;;;5092778;28;20203;-82
2021/01/25 03:56:07;;;;;;;19.67;13.45;;;1.80;99.90;;;;;;5089240;28;20226;-82
2021/01/25 03:58:34;;;;;;;18.52;12.77;;;1.70;99.90;;;;;;5080264;28;20285;-82
2021/01/25 04:01:00;;;;;;;19.48;12.82;;;1.70;99.90;;;;;;5078962;28;20198;-82
2021/01/25 04:03:26;;;;;;;19.70;14.07;;;1.60;99.90;;;;;;5078922;28;20656;-82
2021/01/25 04:05:52;;;;;;;23.38;12.35;;;1.60;99.90;;;;;;5078584;28;20263;-82
2021/01/25 04:08:19;;;;;;;19.45;13.50;;;1.50;99.90;;;;;;5078028;28;20571;-82
2021/01/25 04:10:46;;;;;;;22.23;15.23;;;1.50;99.90;;;;;;5075318;28;20525;-81
2021/01/25 04:13:12;;;;;;;24.20;16.42;;;1.60;99.90;;;;;;5077407;28;20963;-82
2021/01/25 04:15:38;;;;;;;22.55;16.60;;;1.60;99.90;;;;;;5078221;28;20502;-82
2021/01/25 04:18:05;;;;;;;20.85;14.20;;;1.50;99.90;;;;;;5077629;28;20209;-82
2021/01/25 04:20:31;;;;;;;22.75;14.60;;;1.50;99.90;;;;;;5079105;28;20637;-82
2021/01/25 04:22:58;;;;;;;21.83;15.18;;;1.50;99.90;;;;;;5077848;28;20434;-82
2021/01/25 04:25:24;;;;;;;22.20;15.50;;;1.60;99.90;;;;;;5079204;28;20226;-82
2021/01/25 04:27:51;;;;;;;22.15;14.65;;;1.50;99.90;;;;;;5078081;28;20694;-82
2021/01/25 04:30:19;;;;;;;22.38;15.18;;;1.50;99.90;;;;;;5079049;28;20208;-82
2021/01/25 04:32:45;;;;;;;27.88;15.98;;;1.50;99.90;;;;;;5078558;28;20285;-82
2021/01/25 04:35:13;;;;;;;21.83;14.63;;;1.40;99.90;;;;;;5077708;28;20202;-82
2021/01/25 04:37:41;;;;;;;22.98;15.63;;;1.40;99.90;;;;;;5077364;28;20202;-82
2021/01/25 04:40:09;;;;;;;25.02;17.38;;;1.50;99.90;;;;;;5078376;28;20198;-82
2021/01/25 04:42:37;;;;;;;29.33;16.75;;;1.60;99.90;;;;;;5081395;28;20230;-82
2021/01/25 04:45:06;;;;;;;24.90;15.90;;;1.50;99.90;;;;;;5080601;28;20491;-82
2021/01/25 04:47:32;;;;;;;30.73;19.60;;;1.50;99.90;;;;;;5079532;28;20518;-82
2021/01/25 04:49:59;;;;;;;26.83;17.20;;;1.60;99.90;;;;;;5081924;28;20288;-82
2021/01/25 04:52:27;;;;;;;27.23;16.83;;;1.60;99.90;;;;;;5078006;28;20210;-82
2021/01/25 04:54:54;;;;;;;26.17;16.65;;;1.70;99.90;;;;;;5077549;28;20313;-82
2021/01/25 04:57:21;;;;;;;27.80;19.55;;;1.70;99.90;;;;;;5083494;28;20536;-82
2021/01/25 04:59:48;;;;;;;29.95;20.50;;;1.70;99.90;;;;;;5079889;28;20842;-81
2021/01/25 05:02:15;;;;;;;26.73;16.92;;;1.80;99.90;;;;;;5078631;28;20206;-81
2021/01/25 05:04:42;;;;;;;24.27;16.75;;;1.80;99.90;;;;;;5078121;28;20283;-81
2021/01/25 05:07:08;;;;;;;28.85;17.30;;;1.90;99.90;;;;;;5077581;28;20230;-81
2021/01/25 05:09:34;;;;;;;29.85;17.50;;;2.00;99.90;;;;;;5077032;28;20226;-81
2021/01/25 05:12:03;;;;;;;23.50;16.30;;;1.90;99.90;;;;;;5076645;28;20198;-81
2021/01/25 05:14:38;;;;;;;26.20;16.25;;;1.90;99.90;;;;;;5077238;28;20198;-82
2021/01/25 05:17:07;;;;;;;27.52;17.08;;;1.90;99.90;;;;;;5077109;28;20221;-81
2021/01/25 05:19:35;;;;;;;33.60;18.98;;;1.90;99.90;;;;;;5076652;28;20225;-80
2021/01/25 05:22:01;;;;;;;28.70;17.63;;;1.80;99.90;;;;;;5077386;28;20740;-81
2021/01/25 05:24:28;;;;;;;31.40;19.00;;;1.80;99.90;;;;;;5077133;28;20938;-81
2021/01/25 05:26:56;;;;;;;29.65;18.58;;;1.80;99.90;;;;;;5077177;28;20234;-81
2021/01/25 05:29:23;;;;;;;34.92;20.92;;;1.80;99.90;;;;;;5077287;28;20222;-81
2021/01/25 05:31:50;;;;;;;33.95;20.60;;;1.70;99.90;;;;;;5075862;28;20434;-81
2021/01/25 05:34:18;;;;;;;36.78;21.08;;;1.80;99.90;;;;;;5076887;28;20209;-81
2021/01/25 05:36:46;;;;;;;36.88;20.35;;;1.80;99.90;;;;;;5076723;28;20256;-81
2021/01/25 05:39:15;;;;;;;36.78;21.00;;;1.80;99.90;;;;;;5076688;28;20203;-81
2021/01/25 05:41:53;;;;;;;36.10;23.48;;;1.80;99.90;;;;;;5059053;28;20210;-80
2021/01/25 05:44:20;;;;;;;34.55;21.67;;;1.80;99.90;;;;;;5078919;28;20183;-81
2021/01/25 05:46:46;;;;;;;38.42;20.88;;;1.80;99.90;;;;;;5078352;28;20256;-81
2021/01/25 05:49:13;;;;;;;34.00;20.80;;;1.70;99.90;;;;;;5076088;28;20221;-81
2021/01/25 05:51:40;;;;;;;37.33;22.75;;;1.70;99.90;;;;;;5076760;28;20202;-81
2021/01/25 05:54:08;;;;;;;37.58;24.25;;;1.80;99.90;;;;;;5076160;28;20297;-81
2021/01/25 05:56:34;;;;;;;34.08;21.23;;;1.80;99.90;;;;;;5215437;22;20253;-83
2021/01/25 05:59:00;;;;;;;38.97;22.40;;;1.80;99.90;;;;;;5094862;28;20226;-84
2021/01/25 06:01:27;;;;;;;41.60;23.83;;;1.80;99.90;;;;;;5079572;28;20205;-84
2021/01/25 06:03:56;;;;;;;37.15;22.65;;;1.80;99.90;;;;;;5079007;28;20687;-84
2021/01/25 06:06:32;;;;;;;39.53;24.08;;;1.70;99.90;;;;;;5079250;28;20230;-84
2021/01/25 06:09:06;;;;;;;38.97;22.90;;;1.80;99.90;;;;;;5079860;28;20217;-85
2021/01/25 06:11:35;;;;;;;38.13;22.83;;;1.80;99.90;;;;;;5081890;28;20232;-85
2021/01/25 06:14:08;;;;;;;35.10;20.67;;;1.80;99.90;;;;;;5080646;28;20210;-85
2021/01/25 06:16:35;;;;;;;34.25;20.63;;;1.80;99.90;;;;;;5082297;28;20222;-85
2021/01/25 06:19:02;;;;;;;38.75;23.02;;;1.80;99.90;;;;;;5084014;28;20252;-85
2021/01/25 06:21:32;;;;;;;43.90;23.05;;;1.80;99.90;;;;;;5084581;28;20210;-85
2021/01/25 06:24:01;;;;;;;39.63;22.80;;;1.80;99.90;;;;;;5083183;28;20198;-84
2021/01/25 06:26:30;;;;;;;40.25;21.58;;;1.80;99.90;;;;;;5080512;28;20228;-83
2021/01/25 06:29:01;;;;;;;39.42;22.42;;;1.80;99.90;;;;;;5084553;28;20292;-85
2021/01/25 06:31:27;;;;;;;40.25;22.02;;;1.90;99.90;;;;;;5085158;28;20189;-83
2021/01/25 06:33:54;;;;;;;37.08;23.02;;;1.90;99.90;;;;;;5083213;28;20289;-82
2021/01/25 06:36:21;;;;;;;35.13;22.27;;;1.90;99.90;;;;;;5085003;28;20674;-85
2021/01/25 06:38:49;;;;;;;38.58;21.92;;;1.80;99.90;;;;;;5089717;28;20274;-84
2021/01/25 06:41:16;;;;;;;40.78;23.23;;;1.80;99.90;;;;;;5087177;28;20194;-84
2021/01/25 06:43:45;;;;;;;42.42;23.85;;;1.80;99.90;;;;;;5085483;28;20265;-86
2021/01/25 06:46:16;;;;;;;37.30;22.52;;;1.80;99.90;;;;;;5082064;28;20275;-85
2021/01/25 06:48:47;;;;;;;50.83;24.33;;;1.90;99.90;;;;;;5081285;28;20206;-85
2021/01/25 06:51:15;;;;;;;40.42;24.40;;;2.00;99.90;;;;;;5082343;28;20232;-85
2021/01/25 06:53:42;;;;;;;40.05;23.98;;;1.90;99.90;;;;;;5082098;28;20198;-86
2021/01/25 06:56:08;;;;;;;44.00;24.40;;;1.80;99.90;;;;;;5081469;28;20609;-85
2021/01/25 06:58:38;;;;;;;40.50;25.90;;;1.90;99.90;;;;;;5081524;28;20195;-85
2021/01/25 07:01:08;;;;;;;44.70;24.92;;;1.80;99.90;;;;;;5082819;28;20198;-86
2021/01/25 07:03:49;;;;;;;44.13;26.30;;;1.80;99.90;;;;;;5085795;28;20238;-84
2021/01/25 07:06:15;;;;;;;38.28;23.70;;;2.10;99.90;;;;;;5087322;28;20222;-84
2021/01/25 07:08:52;;;;;;;45.33;25.85;;;2.00;99.90;;;;;;5081373;28;20218;-84
2021/01/25 07:11:20;;;;;;;43.25;26.35;;;1.90;99.90;;;;;;5086832;28;20272;-83
2021/01/25 07:13:47;;;;;;;45.38;25.42;;;1.80;99.90;;;;;;5101803;28;20250;-83
2021/01/25 07:16:14;;;;;;;47.88;24.98;;;1.70;99.90;;;;;;5089771;28;20280;-84
2021/01/25 07:18:43;;;;;;;42.15;23.85;;;1.80;99.90;;;;;;5078355;28;20289;-84
2021/01/25 07:21:13;;;;;;;47.90;25.58;;;1.70;99.90;;;;;;5078326;28;20198;-84
2021/01/25 07:23:42;;;;;;;41.80;24.60;;;1.70;99.90;;;;;;5079207;28;20186;-83
2021/01/25 07:26:10;;;;;;;48.08;26.35;;;1.80;99.90;;;;;;5080543;28;20596;-85
2021/01/25 07:28:37;;;;;;;46.00;25.42;;;1.80;99.90;;;;;;5087506;28;20222;-83
2021/01/25 07:31:03;;;;;;;56.03;27.50;;;1.80;99.90;;;;;;5094656;28;20202;-85
2021/01/25 07:33:29;;;;;;;49.25;25.85;;;1.90;99.90;;;;;;5083127;28;20212;-85
2021/01/25 07:35:58;;;;;;;44.78;25.42;;;2.00;99.90;;;;;;5083802;28;20723;-85
2021/01/25 07:38:27;;;;;;;37.75;22.45;;;1.90;99.90;;;;;;5080643;28;20195;-85
2021/01/25 07:40:57;;;;;;;35.33;22.02;;;1.90;99.90;;;;;;5080780;28;20640;-85
2021/01/25 07:43:26;;;;;;;33.80;22.95;;;1.90;99.90;;;;;;5082245;28;20206;-85
2021/01/25 07:45:52;;;;;;;40.35;22.85;;;1.90;99.90;;;;;;5082523;28;20268;-85
2021/01/25 07:48:18;;;;;;;38.42;22.77;;;1.90;99.90;;;;;;5086341;28;20222;-84
2021/01/25 07:50:53;;;;;;;39.92;21.77;;;1.90;99.90;;;;;;5095696;28;20217;-85
2021/01/25 07:53:20;;;;;;;43.55;25.90;;;1.80;99.90;;;;;;5087113;28;20269;-85
2021/01/25 07:55:47;;;;;;;41.00;23.38;;;1.80;99.90;;;;;;5090471;28;20253;-83
2021/01/25 07:58:16;;;;;;;40.10;25.45;;;1.90;99.90;;;;;;5097648;28;20190;-85
2021/01/25 08:00:43;;;;;;;39.40;24.55;;;1.90;99.90;;;;;;5098659;28;20253;-84
2021/01/25 08:03:15;;;;;;;41.88;23.75;;;1.90;99.90;;;;;;5097999;28;20222;-84
2021/01/25 08:05:43;;;;;;;39.20;22.15;;;1.90;99.90;;;;;;5086048;28;20218;-85
2021/01/25 08:08:13;;;;;;;38.88;24.20;;;2.00;99.90;;;;;;5082654;28;20214;-85
2021/01/25 08:10:40;;;;;;;39.40;23.90;;;2.00;99.90;;;;;;5083502;28;20340;-85
2021/01/25 08:13:16;;;;;;;38.03;20.75;;;1.90;99.90;;;;;;5087152;28;20202;-83
2021/01/25 08:15:53;;;;;;;37.35;21.10;;;1.90;99.90;;;;;;5090089;28;20202;-83
2021/01/25 08:18:23;;;;;;;38.63;22.27;;;1.90;99.90;;;;;;5092285;28;20190;-85
2021/01/25 08:20:53;;;;;;;40.80;22.58;;;1.90;99.90;;;;;;5093855;28;20549;-85
2021/01/25 08:23:23;;;;;;;36.08;21.98;;;2.00;99.90;;;;;;5094526;28;20191;-85
2021/01/25 08:25:55;;;;;;;35.92;20.38;;;2.10;99.90;;;;;;5087527;28;20306;-85
2021/01/25 08:28:23;;;;;;;39.17;21.55;;;2.10;99.90;;;;;;5086253;28;20223;-85
2021/01/25 08:30:52;;;;;;;32.50;19.38;;;2.10;99.90;;;;;;5086091;28;20202;-82
2021/01/25 08:33:30;;;;;;;34.67;21.30;;;2.10;99.90;;;;;;5084404;28;20202;-85
2021/01/25 08:36:03;;;;;;;35.22;22.13;;;2.10;99.90;;;;;;5080809;28;20280;-85
2021/01/25 08:38:32;;;;;;;32.83;19.98;;;2.00;99.90;;;;;;5081057;28;20214;-86
2021/01/25 08:41:00;;;;;;;32.95;18.63;;;1.90;99.90;;;;;;5081016;28;20659;-85
2021/01/25 08:43:31;;;;;;;37.35;20.33;;;2.00;99.90;;;;;;5080752;28;20209;-85
2021/01/25 08:46:11;;;;;;;29.23;17.88;;;2.20;99.90;;;;;;5080972;28;20222;-87
2021/01/25 08:48:38;;;;;;;38.10;20.52;;;2.20;99.90;;;;;;5082197;28;20449;-86
2021/01/25 08:51:10;;;;;;;31.20;20.90;;;2.20;99.90;;;;;;5091135;28;20443;-86
2021/01/25 08:53:37;;;;;;;30.95;21.63;;;2.10;99.90;;;;;;5095006;28;20462;-86
2021/01/25 08:56:15;;;;;;;30.25;18.40;;;2.10;99.90;;;;;;5094289;28;20226;-86
2021/01/25 08:58:42;;;;;;;34.38;18.88;;;2.20;99.90;;;;;;5094127;28;20250;-86
2021/01/25 09:01:18;;;;;;;31.80;20.75;;;2.20;99.90;;;;;;5091341;28;20446;-84
2021/01/25 09:03:46;;;;;;;30.92;19.65;;;2.30;99.90;;;;;;5091717;28;20465;-86
2021/01/25 09:06:22;;;;;;;30.40;18.93;;;2.30;99.90;;;;;;5080010;28;20430;-87
2021/01/25 09:09:11;;;;;;;27.08;18.67;;;2.40;99.90;;;;;;5079579;28;20494;-84
2021/01/25 09:14:33;;;;;;;31.33;19.80;;;2.40;99.90;;;;;;5081350;28;20190;-85
2021/01/25 09:17:58;;;;;;;33.47;20.23;;;2.40;99.90;;;;;;5084576;28;20211;-84
2021/01/25 09:20:26;;;;;;;33.33;20.17;;;2.30;99.90;;;;;;5081044;28;20213;-84
2021/01/25 09:23:46;;;;;;;36.95;23.38;;;2.50;99.90;;;;;;5081604;28;20722;-85
2021/01/25 09:32:41;;;;;;;39.20;21.98;;;2.60;99.90;;;;;;5056319;28;20198;-86
2021/01/25 09:35:11;;;;;;;34.07;22.40;;;2.60;99.90;;;;;;5079667;28;20537;-86
2021/01/25 09:37:39;;;;;;;39.63;22.27;;;2.60;99.90;;;;;;5081363;28;20427;-85
2021/01/25 09:40:19;;;;;;;31.50;20.98;;;2.60;99.90;;;;;;5080349;28;20479;-86
2021/01/25 09:43:16;;;;;;;;;;;;;;;;;;;;;
2021/01/25 09:45:48;;;;;;;32.15;19.50;;;2.60;99.90;;;;;;5082208;28;20202;-86
2021/01/25 09:48:15;;;;;;;30.30;18.50;;;2.60;99.90;;;;;;5080738;28;20462;-85
2021/01/25 09:54:12;;;;;;;32.00;18.88;;;2.50;99.90;;;;;;5060590;28;20418;-84
2021/01/25 09:56:38;;;;;;;34.40;21.08;;;2.50;99.90;;;;;;5088354;28;20434;-86
2021/01/25 09:59:16;;;;;;;33.40;22.30;;;2.40;99.90;;;;;;5081450;28;20446;-86
2021/01/25 10:02:41;;;;;;;31.88;18.90;;;2.50;99.90;;;;;;5079775;28;20450;-86
2021/01/25 10:05:32;;;;;;;25.95;16.67;;;2.60;99.90;;;;;;4959433;28;20215;-86
2021/01/25 10:07:58;;;;;;;29.83;17.70;;;2.60;99.90;;;;;;5078578;28;20457;-86
2021/01/25 10:10:27;;;;;;;32.60;20.05;;;2.70;99.90;;;;;;5077760;28;20931;-86
2021/01/25 10:13:09;;;;;;;;;;;;;;;;;;;;;
2021/01/25 10:15:40;;;;;;;28.70;17.67;;;2.80;99.90;;;;;;5079201;28;20280;-87
2021/01/25 10:18:18;;;;;;;32.83;16.80;;;2.80;99.90;;;;;;5079223;28;20220;-86
2021/01/25 10:24:59;;;;;;;31.02;20.30;;;2.80;99.90;;;;;;5034900;28;20418;-88
2021/01/25 10:43:43;;;;;;;28.45;15.95;;;3.20;99.90;;;;;;5029437;28;20177;-86
2021/01/25 10:55:44;;;;;;;20.38;14.38;;;2.90;99.90;;;;;;5085822;28;20206;-88
2021/01/25 10:59:15;;;;;;;;;;;;;;;;;;;;;
2021/01/25 11:02:09;;;;;;;23.00;13.45;;;3.10;99.90;;;;;;5082937;28;20210;-87
2021/01/25 11:04:46;;;;;;;21.08;14.23;;;3.00;99.90;;;;;;5082946;28;20274;-88
2021/01/25 11:07:16;;;;;;;21.52;14.20;;;3.10;99.90;;;;;;5085168;28;20275;-89
2021/01/25 11:12:51;;;;;;;22.20;13.32;;;3.10;99.90;;;;;;5072026;28;20194;-89
2021/01/25 11:15:25;;;;;;;26.42;15.55;;;3.10;99.90;;;;;;5080898;28;20182;-89
2021/01/25 11:18:04;;;;;;;27.05;15.45;;;3.00;99.90;;;;;;5082564;28;20198;-89
2021/01/25 11:20:36;;;;;;;28.10;17.08;;;3.10;99.90;;;;;;5097849;28;20218;-89
2021/01/25 11:23:10;;;;;;;25.23;15.25;;;3.10;99.90;;;;;;5097292;28;20206;-89
2021/01/25 11:25:44;;;;;;;27.15;16.30;;;3.00;99.90;;;;;;5092895;28;20188;-89
2021/01/25 11:28:11;;;;;;;27.60;15.98;;;3.10;99.90;;;;;;5083298;28;20252;-89
2021/01/25 11:30:39;;;;;;;25.27;16.55;;;3.10;99.90;;;;;;5083179;28;20204;-89
2021/01/25 11:33:10;;;;;;;23.33;15.13;;;3.20;99.90;;;;;;5083165;28;20202;-89
2021/01/25 11:35:41;;;;;;;24.42;15.27;;;3.40;99.90;;;;;;5084791;28;20263;-89
2021/01/25 11:38:20;;;;;;;24.55;15.80;;;3.20;99.90;;;;;;5084517;28;20281;-89
2021/01/25 11:40:47;;;;;;;21.10;13.38;;;3.20;99.90;;;;;;5087662;28;20642;-89
2021/01/25 11:43:14;;;;;;;23.48;14.65;;;3.30;99.90;;;;;;5095140;28;20202;-88
2021/01/25 11:45:51;;;;;;;22.08;14.05;;;3.10;99.90;;;;;;5085642;28;20259;-89
2021/01/25 11:48:21;;;;;;;20.63;13.90;;;3.10;99.90;;;;;;5085603;28;20198;-89
2021/01/25 11:50:56;;;;;;;22.92;13.80;;;3.10;99.90;;;;;;5084246;28;20264;-89
2021/01/25 11:53:24;;;;;;;18.90;12.85;;;3.20;99.90;;;;;;5081098;28;20212;-88
2021/01/25 11:55:53;;;;;;;18.10;13.18;;;3.30;99.90;;;;;;5081320;28;20249;-89
2021/01/25 11:58:19;;;;;;;23.55;14.32;;;3.20;99.90;;;;;;5106240;22;20315;-84
2021/01/25 12:01:05;;;;;;;21.70;14.15;;;3.10;99.90;;;;;;5082382;28;20202;-89
2021/01/25 12:03:38;;;;;;;24.95;14.40;;;2.90;99.90;;;;;;5083276;28;20202;-90
2021/01/25 12:06:21;;;;;;;21.27;13.02;;;2.90;99.90;;;;;;5081022;28;20190;-87
2021/01/25 12:09:01;;;;;;;23.10;14.15;;;2.80;99.90;;;;;;5061430;28;20215;-88
2021/01/25 12:11:31;;;;;;;18.52;12.90;;;2.90;99.90;;;;;;5065411;28;20211;-86
2021/01/25 12:13:58;;;;;;;25.13;15.02;;;2.90;99.90;;;;;;5062145;28;20613;-87
2021/01/25 12:16:25;;;;;;;22.67;14.55;;;3.00;99.90;;;;;;5060913;28;20209;-87
2021/01/25 12:18:51;;;;;;;28.95;15.93;;;3.10;99.90;;;;;;5061107;28;20183;-87
2021/01/25 12:21:17;;;;;;;27.42;15.48;;;3.10;99.90;;;;;;5062203;28;20218;-88
2021/01/25 12:24:22;;;;;;;25.20;15.88;;;3.10;99.90;;;;;;5062626;28;20203;-88
2021/01/25 12:26:52;;;;;;;31.27;17.63;;;3.20;99.90;;;;;;5013659;28;20239;-87
2021/01/25 12:29:38;;;;;;;27.15;16.35;;;3.40;99.90;;;;;;5064157;28;20246;-86
2021/01/25 12:32:09;;;;;;;29.38;17.02;;;3.30;99.90;;;;;;5062206;28;20217;-86
2021/01/25 12:34:36;;;;;;;26.90;17.90;;;3.30;99.90;;;;;;5061919;28;20455;-86
2021/01/25 12:37:10;;;;;;;24.73;17.13;;;3.10;99.90;;;;;;5061851;28;20254;-87
2021/01/25 12:39:38;;;;;;;29.50;16.40;;;3.20;99.90;;;;;;5060937;28;20203;-87
2021/01/25 12:42:07;;;;;;;29.42;18.90;;;3.10;99.90;;;;;;5061487;28;20233;-87
2021/01/25 12:44:35;;;;;;;27.35;17.42;;;3.10;99.90;;;;;;5060562;28;20222;-86
2021/01/25 12:47:02;;;;;;;24.88;16.63;;;3.10;99.90;;;;;;5059420;28;20761;-85
2021/01/25 12:49:42;;;;;;;28.55;17.10;;;3.10;99.90;;;;;;5057209;28;20229;-86
2021/01/25 12:52:17;;;;;;;26.13;16.55;;;3.20;99.90;;;;;;5058135;28;20309;-85
2021/01/25 12:54:44;;;;;;;30.23;18.27;;;3.30;99.90;;;;;;5061126;28;20579;-84
2021/01/25 12:57:10;;;;;;;27.92;17.63;;;3.30;99.90;;;;;;5059525;28;20313;-83
2021/01/25 12:59:36;;;;;;;28.90;18.90;;;3.40;99.90;;;;;;5060036;28;20225;-85
2021/01/25 13:02:03;;;;;;;33.40;17.52;;;3.30;99.90;;;;;;5060535;28;20729;-86
2021/01/25 13:04:48;;;;;;;33.63;18.77;;;3.40;99.90;;;;;;5059264;28;20233;-85
2021/01/25 13:07:14;;;;;;;27.33;17.92;;;3.30;99.90;;;;;;5060650;28;20227;-85
2021/01/25 13:09:40;;;;;;;27.90;18.55;;;3.30;99.90;;;;;;5060956;28;20223;-86
2021/01/25 13:12:10;;;;;;;30.20;19.73;;;3.20;99.90;;;;;;5059694;28;20534;-85
2021/01/25 13:14:36;;;;;;;29.02;17.63;;;3.20;99.90;;;;;;5061039;28;20188;-86
2021/01/25 13:17:03;;;;;;;28.38;17.25;;;3.30;99.90;;;;;;5064477;28;20230;-85
2021/01/25 13:19:29;;;;;;;30.50;18.35;;;3.50;99.90;;;;;;5063496;28;20199;-85
2021/01/25 13:21:56;;;;;;;37.65;21.80;;;3.40;99.90;;;;;;5062771;28;20211;-86
2021/01/25 13:24:23;;;;;;;37.22;23.13;;;3.20;99.90;;;;;;5063438;28;20213;-85
2021/01/25 13:26:49;;;;;;;39.53;22.13;;;3.20;99.90;;;;;;5063713;28;20715;-87
2021/01/25 13:29:16;;;;;;;43.38;25.75;;;3.40;99.90;;;;;;5065191;28;20240;-85
2021/01/25 13:31:43;;;;;;;46.13;26.98;;;3.20;99.90;;;;;;5062161;28;20203;-84
2021/01/25 13:34:10;;;;;;;32.63;20.73;;;3.30;99.90;;;;;;5061628;28;20281;-85
2021/01/25 13:36:47;;;;;;;53.20;30.33;;;3.30;99.90;;;;;;5060185;28;20235;-85
2021/01/25 13:39:24;;;;;;;51.45;28.77;;;3.30;99.90;;;;;;5060882;28;20183;-86